Terminal Aerodrome Forecast
Issued by NWS Dallas/Fort Worth, TX

Current Version | Previous Version | Text Only | Print | Product List | Glossary On
Versions: 1 2 3 4 5 6 7 8 9 10 11 12 13 14 15 16 17 18 19 20 21 22 23 24 25
000
FTUS44 KFWD 300520
TAFDFW
TAF
KDFW 300520Z 3006/3112 17008KT P6SM SKC
     FM301800 10006KT P6SM FEW060 SCT300=

USA.gov is the U.S. government's official web portal to all federal, state and local government web resources and services.